createdAt,value
2019-04-14T00:02:05.356Z,73.75
2019-04-14T00:04:42.252Z,74.87
2019-04-14T00:07:12.197Z,73.45
2019-04-14T00:09:43.166Z,74.17
2019-04-14T00:12:14.277Z,75.30
2019-04-14T00:14:44.672Z,75.07
2019-04-14T00:17:19.963Z,74.79
2019-04-14T00:19:58.943Z,74.36
2019-04-14T00:22:29.545Z,74.60
2019-04-14T00:24:59.870Z,75.18
2019-04-14T00:27:28.932Z,75.37
2019-04-14T00:29:58.993Z,75.90
2019-04-14T00:32:31.203Z,74.79
2019-04-14T00:35:21.254Z,76.75
2019-04-14T00:38:13.034Z,74.89
2019-04-14T00:41:09.551Z,73.70
2019-04-14T00:43:47.042Z,75.92
2019-04-14T00:46:36.803Z,75.77
2019-04-14T00:49:06.948Z,74.55
2019-04-14T00:51:38.285Z,74.52
2019-04-14T00:54:13.407Z,75.67
2019-04-14T00:56:43.344Z,75.85
2019-04-14T00:59:13.612Z,74.79
2019-04-14T01:01:45.700Z,75.21
2019-04-14T01:04:15.041Z,74.39
2019-04-14T01:06:44.889Z,75.00
2019-04-14T01:09:15.198Z,75.51
2019-04-14T01:11:44.389Z,75.38
2019-04-14T01:14:16.982Z,75.87
2019-04-14T01:16:47.663Z,75.56
2019-04-14T01:19:21.995Z,76.14
2019-04-14T01:21:52.428Z,76.30
2019-04-14T01:24:23.473Z,76.35
2019-04-14T01:26:55.001Z,76.50
2019-04-14T01:29:25.428Z,76.02
2019-04-14T01:31:56.287Z,75.00
2019-04-14T01:34:26.013Z,74.41
2019-04-14T01:36:58.574Z,74.03
2019-04-14T01:39:29.245Z,74.47
2019-04-14T01:42:03.010Z,75.36
2019-04-14T01:44:33.023Z,75.47
2019-04-14T01:47:03.172Z,78.06
2019-04-14T01:49:33.283Z,75.38
2019-04-14T01:52:23.186Z,75.48
2019-04-14T01:55:22.231Z,74.92
2019-04-14T01:58:10.057Z,75.99
2019-04-14T02:00:55.392Z,77.36
2019-04-14T02:03:25.972Z,77.83
2019-04-14T02:05:56.097Z,78.03
2019-04-14T02:08:26.790Z,77.06
2019-04-14T02:11:03.002Z,77.21
2019-04-14T02:13:37.575Z,76.91
2019-04-14T02:16:18.494Z,77.04
2019-04-14T02:18:40.610Z,76.35
2019-04-14T02:21:10.779Z,76.10
2019-04-14T02:23:41.125Z,76.23
2019-04-14T02:26:11.233Z,75.36
2019-04-14T02:28:41.746Z,74.39
2019-04-14T02:31:24.685Z,73.77
2019-04-14T02:34:08.021Z,73.62
2019-04-14T02:36:40.240Z,74.26
2019-04-14T02:39:33.842Z,74.03
2019-04-14T02:42:02.580Z,73.65
2019-04-14T02:47:00.988Z,73.17
2019-04-14T02:49:27.280Z,72.26
2019-04-14T02:51:58.560Z,72.11
2019-04-14T02:54:43.561Z,72.45
2019-04-14T02:57:17.654Z,73.13
2019-04-14T02:59:56.955Z,73.88
2019-04-14T03:04:51.021Z,73.60
2019-04-14T03:07:45.774Z,72.88
2019-04-14T03:10:06.917Z,73.03
2019-04-14T03:12:43.968Z,72.64
2019-04-14T03:15:07.245Z,73.16
2019-04-14T03:18:00.086Z,73.15
2019-04-14T03:20:40.092Z,73.43
2019-04-14T03:23:25.274Z,73.87
2019-04-14T03:25:51.292Z,73.55
2019-04-14T03:28:33.609Z,73.05
2019-04-14T03:34:12.947Z,73.75
2019-04-14T03:43:54.439Z,73.09
2019-04-14T03:49:06.117Z,73.75
2019-04-14T03:51:45.058Z,73.54
2019-04-14T03:53:58.481Z,73.95
2019-04-14T03:56:47.277Z,74.00
2019-04-14T03:59:19.824Z,74.15
2019-04-14T04:01:50.611Z,74.86
2019-04-14T04:04:22.713Z,74.31
2019-04-14T04:06:53.154Z,73.76
2019-04-14T04:09:26.065Z,73.36
2019-04-14T04:11:56.392Z,73.22
2019-04-14T04:14:26.978Z,73.85
2019-04-14T04:17:34.150Z,73.26
2019-04-14T04:20:13.400Z,74.04
2019-04-14T04:23:09.554Z,74.37
2019-04-14T04:25:46.631Z,74.62
2019-04-14T04:28:27.848Z,74.69
2019-04-14T04:31:19.864Z,73.61
2019-04-14T04:33:56.330Z,72.95
2019-04-14T04:36:35.668Z,72.27
2019-04-14T04:39:17.093Z,71.72
2019-04-14T04:41:49.329Z,71.13
2019-04-14T04:44:22.436Z,70.59
2019-04-14T04:46:54.804Z,70.42
2019-04-14T04:49:27.312Z,70.07
2019-04-14T04:51:55.160Z,70.48
2019-04-14T04:54:25.755Z,70.27
2019-04-14T04:56:58.006Z,70.48
2019-04-14T04:59:30.148Z,73.35
2019-04-14T05:02:00.446Z,71.25
2019-04-14T05:04:31.138Z,70.49
2019-04-14T05:07:01.572Z,70.06
2019-04-14T05:10:00.166Z,70.45
2019-04-14T05:12:41.317Z,70.40
2019-04-14T05:15:40.260Z,71.44
2019-04-14T05:18:20.384Z,71.92
2019-04-14T05:20:51.464Z,71.76
2019-04-14T05:23:23.907Z,71.68
2019-04-14T05:25:53.861Z,71.66
2019-04-14T05:28:24.407Z,72.52
2019-04-14T05:30:54.704Z,72.65
2019-04-14T05:33:27.166Z,75.60
2019-04-14T05:35:57.443Z,72.15
2019-04-14T05:38:32.163Z,71.87
2019-04-14T05:41:07.007Z,72.19
2019-04-14T05:43:48.155Z,72.33
2019-04-14T05:46:11.971Z,71.68
2019-04-14T05:48:42.489Z,72.12
2019-04-14T05:51:11.627Z,72.15
2019-04-14T05:53:41.577Z,71.68
2019-04-14T05:56:14.374Z,72.10
2019-04-14T05:58:44.638Z,72.06
2019-04-14T06:01:14.344Z,72.13
2019-04-14T06:03:43.503Z,71.48
2019-04-14T06:06:12.563Z,70.98
2019-04-14T06:08:41.605Z,70.84
2019-04-14T06:11:15.139Z,71.04
2019-04-14T06:13:44.260Z,70.54
2019-04-14T06:16:13.363Z,70.67
2019-04-14T06:18:42.617Z,71.01
2019-04-14T06:21:14.379Z,71.43
2019-04-14T06:23:46.262Z,72.10
2019-04-14T06:26:23.661Z,71.91
2019-04-14T06:28:52.690Z,71.96
2019-04-14T06:31:39.650Z,71.71
2019-04-14T06:34:19.304Z,72.04
2019-04-14T06:37:08.104Z,72.40
2019-04-14T06:39:40.668Z,72.50
2019-04-14T06:42:14.247Z,72.02
2019-04-14T06:44:44.914Z,71.62
2019-04-14T06:47:14.032Z,71.29
2019-04-14T06:49:48.797Z,71.54
2019-04-14T06:52:21.129Z,71.76
2019-04-14T06:54:50.255Z,72.05
2019-04-14T06:57:19.727Z,72.00
2019-04-14T06:59:51.914Z,72.25
2019-04-14T07:02:22.951Z,72.15
2019-04-14T07:04:52.032Z,72.77
2019-04-14T07:07:22.659Z,72.44
2019-04-14T07:09:51.741Z,72.40
2019-04-14T07:12:20.930Z,71.58
2019-04-14T07:14:53.283Z,70.93
2019-04-14T07:17:24.856Z,70.74
2019-04-14T07:20:01.839Z,70.20
2019-04-14T07:22:30.216Z,69.73
2019-04-14T07:24:59.357Z,69.94
2019-04-14T07:27:30.075Z,70.28
2019-04-14T07:30:21.106Z,70.08
2019-04-14T07:33:07.159Z,71.10
2019-04-14T07:35:47.709Z,70.58
2019-04-14T07:38:25.899Z,71.85
2019-04-14T07:41:19.555Z,71.46
2019-04-14T07:44:02.808Z,71.19
2019-04-14T07:46:54.988Z,69.55
2019-04-14T07:49:47.060Z,70.35
2019-04-14T07:52:33.910Z,69.33
2019-04-14T07:55:26.411Z,67.32
2019-04-14T07:58:19.877Z,67.92
2019-04-14T08:00:56.284Z,66.81
2019-04-14T08:03:45.299Z,69.75
2019-04-14T08:06:15.945Z,67.83
2019-04-14T08:08:51.291Z,66.94
2019-04-14T08:11:21.757Z,66.83
2019-04-14T08:13:54.661Z,66.87
2019-04-14T08:16:25.332Z,68.14
2019-04-14T08:18:54.455Z,68.54
2019-04-14T08:21:23.543Z,66.81
2019-04-14T08:23:54.133Z,67.24
2019-04-14T08:26:23.638Z,66.92
2019-04-14T08:28:53.511Z,65.32
2019-04-14T08:31:22.690Z,65.56
2019-04-14T08:33:53.011Z,65.92
2019-04-14T08:36:22.095Z,66.64
2019-04-14T08:38:52.597Z,66.23
2019-04-14T08:41:26.537Z,65.36
2019-04-14T08:44:20.774Z,64.17
2019-04-14T08:47:10.825Z,64.97
2019-04-14T08:49:47.563Z,62.87
2019-04-14T08:52:57.873Z,65.59
2019-04-14T08:55:46.013Z,66.13
2019-04-14T08:58:39.904Z,65.50
2019-04-14T09:01:47.924Z,64.95
2019-04-14T09:04:22.231Z,64.98
2019-04-14T09:07:20.366Z,65.14
2019-04-14T09:10:05.943Z,64.16
2019-04-14T09:12:40.121Z,64.13
2019-04-14T09:15:11.834Z,63.97
2019-04-14T09:17:40.922Z,64.00
2019-04-14T09:20:11.378Z,63.29
2019-04-14T09:22:40.352Z,63.70
2019-04-14T09:25:09.434Z,62.23
2019-04-14T09:27:38.526Z,62.05
2019-04-14T09:30:08.576Z,61.78
2019-04-14T09:32:39.479Z,62.97
2019-04-14T09:35:08.708Z,63.39
2019-04-14T09:37:37.789Z,63.66
2019-04-14T09:40:07.129Z,61.73
2019-04-14T09:42:39.095Z,62.53
2019-04-14T09:45:10.484Z,61.71
2019-04-14T09:47:42.484Z,61.95
2019-04-14T09:50:11.637Z,62.02
2019-04-14T09:52:40.754Z,62.80
2019-04-14T09:55:11.328Z,62.68
2019-04-14T09:57:42.897Z,62.93
2019-04-14T10:00:17.638Z,62.23
2019-04-14T10:03:08.990Z,62.33
2019-04-14T10:05:38.117Z,62.20
2019-04-14T10:08:07.283Z,62.19
2019-04-14T10:10:36.654Z,61.01
2019-04-14T10:13:06.198Z,62.12
2019-04-14T10:15:36.513Z,62.88
2019-04-14T10:18:06.751Z,62.09
2019-04-14T10:20:36.072Z,60.32
2019-04-14T10:23:05.171Z,60.77
2019-04-14T10:25:36.629Z,60.64
2019-04-14T10:28:07.073Z,60.27
2019-04-14T10:30:38.657Z,59.92
2019-04-14T10:33:07.758Z,59.98
2019-04-14T10:35:36.806Z,58.16
2019-04-14T10:38:05.903Z,58.86
2019-04-14T10:40:35.178Z,56.55
2019-04-14T10:43:04.397Z,57.89
2019-04-14T10:45:33.476Z,58.02
2019-04-14T10:48:02.551Z,57.20
2019-04-14T10:50:33.488Z,56.60
2019-04-14T10:53:03.623Z,58.64
2019-04-14T10:55:39.820Z,53.52
2019-04-14T10:58:11.243Z,52.62
2019-04-14T11:00:40.354Z,53.31
2019-04-14T11:03:09.621Z,53.62
2019-04-14T11:05:59.765Z,53.45
2019-04-14T11:08:28.812Z,52.76
2019-04-14T11:10:57.860Z,55.00
2019-04-14T11:13:28.009Z,53.81
2019-04-14T11:15:58.757Z,53.74
2019-04-14T11:18:27.855Z,56.47
2019-04-14T11:20:56.929Z,57.59
2019-04-14T11:23:26.009Z,55.05
2019-04-14T11:25:55.056Z,54.72
2019-04-14T11:28:24.131Z,55.88
2019-04-14T11:30:54.313Z,53.16
2019-04-14T11:33:51.281Z,52.78
2019-04-14T11:36:48.339Z,53.59
2019-04-14T11:39:19.320Z,55.05
2019-04-14T11:41:48.465Z,54.43
2019-04-14T11:44:17.569Z,57.16
2019-04-14T11:46:46.640Z,56.36
2019-04-14T11:49:16.591Z,54.10
2019-04-14T11:51:55.104Z,54.57
2019-04-14T11:54:21.189Z,54.06
2019-04-14T11:56:53.205Z,54.04
2019-04-14T11:59:46.787Z,54.34
2019-04-14T12:02:24.007Z,54.41
2019-04-14T12:05:21.075Z,54.02
2019-04-14T12:08:12.076Z,52.93
2019-04-14T12:10:42.574Z,51.26
2019-04-14T12:13:11.666Z,49.58
2019-04-14T12:15:43.951Z,48.87
2019-04-14T12:18:18.297Z,49.48
2019-04-14T12:20:47.363Z,48.36
2019-04-14T12:23:16.691Z,49.23
2019-04-14T12:25:46.982Z,51.03
2019-04-14T12:28:17.258Z,50.93
2019-04-14T12:30:47.090Z,51.06
2019-04-14T12:33:22.791Z,54.18
2019-04-14T12:35:51.843Z,55.17
2019-04-14T12:38:20.912Z,53.04
2019-04-14T12:40:50.774Z,52.39
2019-04-14T12:43:38.977Z,52.18
2019-04-14T12:46:36.406Z,52.36
2019-04-14T12:49:18.584Z,50.96
2019-04-14T12:52:20.272Z,49.89
2019-04-14T12:54:41.283Z,49.44
2019-04-14T12:57:10.357Z,50.30
2019-04-14T12:59:39.439Z,50.13
2019-04-14T13:02:17.696Z,50.28
2019-04-14T13:04:47.740Z,49.01
2019-04-14T13:07:16.836Z,46.13
2019-04-14T13:09:45.922Z,46.82
2019-04-14T13:12:15.149Z,45.92
2019-04-14T13:14:46.452Z,45.66
2019-04-14T13:17:20.176Z,47.00
2019-04-14T13:19:52.205Z,46.04
2019-04-14T13:22:32.965Z,46.06
2019-04-14T13:24:53.360Z,47.06
2019-04-14T13:27:23.314Z,45.76
2019-04-14T13:29:55.455Z,45.13
2019-04-14T13:32:35.795Z,45.75
2019-04-14T13:35:02.152Z,45.18
2019-04-14T13:37:43.321Z,45.94
2019-04-14T13:40:16.458Z,45.04
2019-04-14T13:42:46.268Z,43.38
2019-04-14T13:45:24.387Z,43.87
2019-04-14T13:47:57.951Z,41.91
2019-04-14T13:50:27.032Z,42.52
2019-04-14T13:52:58.034Z,42.30
2019-04-14T13:55:31.531Z,41.10
2019-04-14T13:58:00.789Z,41.21
2019-04-14T14:00:29.944Z,41.82
2019-04-14T14:02:59.306Z,42.55
2019-04-14T14:05:29.464Z,42.16
2019-04-14T14:08:01.627Z,42.65
2019-04-14T14:10:33.440Z,42.97
2019-04-14T14:13:17.458Z,43.16
2019-04-14T14:16:30.229Z,42.92
2019-04-14T14:19:07.241Z,42.42
2019-04-14T14:22:01.139Z,43.03
2019-04-14T14:24:51.665Z,43.19
2019-04-14T14:27:20.754Z,41.91
2019-04-14T14:29:49.887Z,42.32
2019-04-14T14:32:26.732Z,42.65
2019-04-14T14:34:55.773Z,42.69
2019-04-14T14:37:25.003Z,42.63
2019-04-14T14:39:55.176Z,42.85
2019-04-14T14:42:30.317Z,43.04
2019-04-14T14:45:27.535Z,42.40
2019-04-14T14:48:09.385Z,43.71
2019-04-14T14:50:46.995Z,44.43
2019-04-14T14:53:16.130Z,45.50
2019-04-14T14:55:46.768Z,43.91
2019-04-14T14:58:18.479Z,43.13
2019-04-14T15:00:48.923Z,43.22
2019-04-14T15:03:20.425Z,41.90
2019-04-14T15:05:49.512Z,41.69
2019-04-14T15:08:18.755Z,41.04
2019-04-14T15:10:49.374Z,42.14
2019-04-14T15:13:18.669Z,42.95
2019-04-14T15:15:47.788Z,43.85
2019-04-14T15:18:16.864Z,43.37
2019-04-14T15:20:50.825Z,44.65
2019-04-14T15:23:25.184Z,45.20
2019-04-14T15:25:54.150Z,45.00
2019-04-14T15:28:23.241Z,45.48
2019-04-14T15:30:54.430Z,46.07
2019-04-14T15:33:24.920Z,46.48
2019-04-14T15:35:54.195Z,44.72
2019-04-14T15:38:23.347Z,45.36
2019-04-14T15:40:52.410Z,46.13
2019-04-14T15:43:21.477Z,46.29
2019-04-14T15:45:50.544Z,45.54
2019-04-14T15:48:19.688Z,44.70
2019-04-14T15:50:49.897Z,44.53
2019-04-14T15:53:20.401Z,45.29
2019-04-14T15:55:55.272Z,45.30
2019-04-14T15:58:53.496Z,44.81
2019-04-14T16:01:54.888Z,44.55
2019-04-14T16:04:41.271Z,44.90
2019-04-14T16:07:20.190Z,45.34
2019-04-14T16:10:11.324Z,45.90
2019-04-14T16:12:53.514Z,44.93
2019-04-14T16:15:48.890Z,46.42
2019-04-14T16:18:37.003Z,46.99
2019-04-14T16:21:11.094Z,45.69
2019-04-14T16:23:52.277Z,45.20
2019-04-14T16:26:43.433Z,44.92
2019-04-14T16:29:19.019Z,45.98
2019-04-14T16:32:24.695Z,46.63
2019-04-14T16:35:04.475Z,46.42
2019-04-14T16:37:40.616Z,46.40
2019-04-14T16:40:09.793Z,46.40
2019-04-14T16:42:38.841Z,45.50
2019-04-14T16:45:14.923Z,45.68
2019-04-14T16:47:44.010Z,45.89
2019-04-14T16:50:14.865Z,45.36
2019-04-14T16:53:05.054Z,45.48
2019-04-14T16:55:56.262Z,45.25
2019-04-14T16:58:33.306Z,45.74
2019-04-14T17:01:07.276Z,47.31
2019-04-14T17:03:36.777Z,48.09
2019-04-14T17:06:09.162Z,47.96
2019-04-14T17:08:42.892Z,48.13
2019-04-14T17:11:16.459Z,48.28
2019-04-14T17:13:52.492Z,48.38
2019-04-14T17:16:46.755Z,48.06
2019-04-14T17:19:31.685Z,48.10
2019-04-14T17:22:30.746Z,47.51
2019-04-14T17:25:18.635Z,46.92
2019-04-14T17:28:12.899Z,47.34
2019-04-14T17:30:48.526Z,47.37
2019-04-14T17:33:33.050Z,47.73
2019-04-14T17:36:07.921Z,47.74
2019-04-14T17:38:46.503Z,47.80
2019-04-14T17:41:21.779Z,47.82
2019-04-14T17:44:03.357Z,48.04
2019-04-14T17:46:50.351Z,48.10
2019-04-14T17:49:44.454Z,48.29
2019-04-14T17:52:47.869Z,48.36
2019-04-14T17:55:49.367Z,49.02
2019-04-14T17:58:36.696Z,49.22
2019-04-14T18:01:16.098Z,49.37
2019-04-14T18:03:55.753Z,49.10
2019-04-14T18:06:38.835Z,49.10
2019-04-14T18:09:22.756Z,49.20
2019-04-14T18:12:14.111Z,49.82
2019-04-14T18:14:48.063Z,49.92
2019-04-14T18:17:36.158Z,49.96
2019-04-14T18:20:13.626Z,50.22
2019-04-14T18:22:42.855Z,50.85
2019-04-14T18:25:15.754Z,51.24
2019-04-14T18:28:09.451Z,51.17
2019-04-14T18:30:44.765Z,51.21
2019-04-14T18:33:31.571Z,51.96
2019-04-14T18:36:05.343Z,51.79
2019-04-14T18:38:43.702Z,51.67
2019-04-14T18:41:19.876Z,51.92
2019-04-14T18:44:10.975Z,51.92
2019-04-14T18:47:02.382Z,51.65
2019-04-14T18:49:47.851Z,52.02
2019-04-14T18:52:37.114Z,51.90
2019-04-14T18:55:28.364Z,52.25
2019-04-14T18:58:13.967Z,52.21
2019-04-14T19:00:50.932Z,52.10
2019-04-14T19:03:20.775Z,52.26
2019-04-14T19:05:50.109Z,52.23
2019-04-14T19:08:23.962Z,52.09
2019-04-14T19:11:17.530Z,52.33
2019-04-14T19:13:50.103Z,52.31
2019-04-14T19:16:25.099Z,52.24
2019-04-14T19:18:59.065Z,52.41
2019-04-14T19:21:30.512Z,52.61
2019-04-14T19:24:02.690Z,52.85
2019-04-14T19:26:31.890Z,52.76
2019-04-14T19:29:00.996Z,52.88
2019-04-14T19:31:30.931Z,53.01
2019-04-14T19:34:00.112Z,52.94
2019-04-14T19:36:31.480Z,53.15
2019-04-14T19:39:00.115Z,53.00
2019-04-14T19:41:29.181Z,53.40
2019-04-14T19:43:58.307Z,53.39
2019-04-14T19:46:27.432Z,53.51
2019-04-14T19:48:56.792Z,53.59
2019-04-14T19:51:26.896Z,54.09
2019-04-14T19:54:03.613Z,54.82
2019-04-14T19:56:32.945Z,55.62
2019-04-14T19:59:03.081Z,56.49
2019-04-14T20:01:33.742Z,56.58
2019-04-14T20:04:02.839Z,56.58
2019-04-14T20:06:32.396Z,56.65
2019-04-14T20:09:01.444Z,57.03
2019-04-14T20:11:32.252Z,57.08
2019-04-14T20:14:01.330Z,57.42
2019-04-14T20:16:53.479Z,56.92
2019-04-14T20:19:55.131Z,57.08
2019-04-14T20:22:43.227Z,57.35
2019-04-14T20:25:41.328Z,57.51
2019-04-14T20:28:38.834Z,57.35
2019-04-14T20:31:25.724Z,57.58
2019-04-14T20:33:55.535Z,56.97
2019-04-14T20:36:24.708Z,56.82
2019-04-14T20:38:53.849Z,56.97
2019-04-14T20:41:22.951Z,56.96
2019-04-14T20:43:52.038Z,57.22
2019-04-14T20:46:21.088Z,57.42
2019-04-14T20:48:50.178Z,57.32
2019-04-14T20:51:19.222Z,57.55
2019-04-14T20:53:51.213Z,57.44
2019-04-14T20:56:21.968Z,57.93
2019-04-14T20:58:54.176Z,58.01
2019-04-14T21:01:24.539Z,58.20
2019-04-14T21:04:09.248Z,58.83
2019-04-14T21:07:02.839Z,58.80
2019-04-14T21:10:06.427Z,59.03
2019-04-14T21:13:08.163Z,58.83
2019-04-14T21:16:11.949Z,59.09
2019-04-14T21:18:55.879Z,59.35
2019-04-14T21:21:45.001Z,59.70
2019-04-14T21:24:23.488Z,59.21
2019-04-14T21:27:11.549Z,58.63
2019-04-14T21:30:06.159Z,58.87
2019-04-14T21:32:41.917Z,59.24
2019-04-14T21:35:33.525Z,59.21
2019-04-14T21:38:18.459Z,59.21
2019-04-14T21:40:55.390Z,59.60
2019-04-14T21:43:26.128Z,60.00
2019-04-14T21:45:55.280Z,60.28
2019-04-14T21:48:24.373Z,60.18
2019-04-14T21:50:53.449Z,60.23
2019-04-14T21:53:22.508Z,60.12
2019-04-14T21:55:51.579Z,60.25
2019-04-14T21:58:26.637Z,60.05
2019-04-14T22:01:49.690Z,59.82
2019-04-14T22:04:50.165Z,59.63
2019-04-14T22:07:34.894Z,59.95
2019-04-14T22:10:24.001Z,60.23
2019-04-14T22:12:53.164Z,59.85
2019-04-14T22:15:22.263Z,59.29
2019-04-14T22:17:52.482Z,59.35
2019-04-14T22:20:23.172Z,59.29
2019-04-14T22:22:52.639Z,59.56
2019-04-14T22:25:23.344Z,59.43
2019-04-14T22:27:52.417Z,59.14
2019-04-14T22:30:21.500Z,59.21
2019-04-14T22:32:50.536Z,59.03
2019-04-14T22:35:19.604Z,59.08
2019-04-14T22:37:48.688Z,59.25
2019-04-14T22:40:19.304Z,59.75
2019-04-14T22:42:57.664Z,59.68
2019-04-14T22:45:30.890Z,59.84
2019-04-14T22:48:00.319Z,59.82
2019-04-14T22:50:29.368Z,59.57
2019-04-14T22:52:58.444Z,59.69
2019-04-14T22:55:27.536Z,59.65
2019-04-14T22:57:59.500Z,59.90
2019-04-14T23:00:56.452Z,59.97
2019-04-14T23:03:51.890Z,59.64
2019-04-14T23:06:39.892Z,60.18
2019-04-14T23:09:43.453Z,61.05
2019-04-14T23:12:37.254Z,61.54
2019-04-14T23:15:30.947Z,61.62
2019-04-14T23:18:29.619Z,61.59
2019-04-14T23:21:14.741Z,62.00
2019-04-14T23:24:03.503Z,62.08
2019-04-14T23:26:51.433Z,62.07
2019-04-14T23:29:09.865Z,62.16
2019-04-14T23:31:38.976Z,62.03
2019-04-14T23:34:08.135Z,62.00
2019-04-14T23:36:37.191Z,61.67
2019-04-14T23:39:10.613Z,61.82
2019-04-14T23:41:42.246Z,61.72
2019-04-14T23:44:11.334Z,61.00
2019-04-14T23:46:40.407Z,60.44
2019-04-14T23:49:09.813Z,59.75
2019-04-14T23:51:40.197Z,60.13
2019-04-14T23:54:09.289Z,60.61
2019-04-14T23:56:41.627Z,60.96
2019-04-14T23:59:10.987Z,60.83
